Username
Password
 
Info Terbaru :
  

Jackpot hanya dapat di beli di awal sebelum periode tersebut berjalan dan jika berhasil maka anda dapat melihat di sisi kiri bawah atau kiri atas akan terdapat notifikasi bahwa jackpot anda berhasil di beli.

Jika anda membeli jackpot di tengah permainan maka pembelian jackpot akan berlaku untuk periode selanjutnya.

Jackpot Winner Domino

Ikutilah global jackpot yang tersedia di system kami, dengan system jackpot terbaru dan pertama di indonesia, anda dapat membeli jackpot dengan harga 100 rupiah saja dan menangkan hadiahnya hingga puluhan juta rupiah.

Jackpot bukanlah suatu keharusan untuk dibeli, namun kami memberikan suatu fitur tambahan untuk member tercinta dari www.cintadp.com.

Terdapat tiga pilihan harga jackpot yang bisa anda beli yaitu :100,500 dan 1000 rupiah.

Hadiah dari Multi jackpot system www.cintadp.com

  1. Murni Kecil x 50 harga jackpot yang anda beli.
      (contoH:anda membeli 1000 maka:1000 X 50 = 50.000)
  2. Murni Besar x 50 harga jackpot yang anda beli
      (contoH:anda membeli 1000 maka:1000 X 50 = 50.000)
  3. BALAK x 100 harga jackpot yang anda beli
      (contoH:anda membeli 1000 maka:1000 X 100 = 100.000)
  4. ENAM DEWA x 6666 harga jackpot yang anda beli
      (contoH:anda membeli 1000 maka:1000 X 6666 = 6.666.000)

Demikian adalah penjelasan dari Multi Jackpot www.cintadp.com terima kasih dan selamat bermain salam hoki dari kami


Note: Untuk mendapatkan jackpot di satu periode, pemain harus menyelesaikan permainan di periode tersebut, minimal 2 pemain. Jika semua pemain 'fold' jackpot tidak akan diturunkan.


Jackpot Winner

TOP ENAM DEWA
No. Tanggal Nama Price Win
1 21/02 12:27 BORJONK murni enam 6,666,000
2 21/02 09:30 JAYA891 murni enam 3,333,000
3 21/02 08:30 H36JY9PB66 murni enam 6,666,000
4 21/02 07:21 TEMPALO murni enam 6,666,000
5 21/02 05:34 HUMAS25 murni enam 6,666,000
TOP BALAK
No. Tanggal Nama Price Win
1 21/02 12:57 BENUK balak 100,000
2 21/02 12:53 GURILEM33 balak 100,000
3 21/02 12:52 DANA_BESAR balak 50,000
4 21/02 12:47 TOAST24 balak 100,000
5 21/02 12:47 RIZKYDIMAS balak 100,000
LATEST JACKPOT
No. Tanggal Nama Price Win
1 21/02 12:59 ALDI77DI murni besar 5,000
2 21/02 12:59 LICIKK21 murni besar 5,000
3 21/02 12:59 JPDIAMOND murni besar 25,000
4 21/02 12:58 CUKKADAMA murni besar 50,000
5 21/02 12:58 B8477580 murni kecil 5,000
6 21/02 12:57 ALDI77DI murni kecil 5,000
7 21/02 12:57 BENUK balak 100,000
8 21/02 12:57 LICIKK21 lucky99 2,500
9 21/02 12:56 KENTUT0 murni besar 5,000
10 21/02 12:56 DOBLER murni besar 50,000
11 21/02 12:56 ANIS539 murni kecil 25,000
12 21/02 12:56 T3D1999 murni besar 50,000
13 21/02 12:56 BIHBUL6666 murni kecil 50,000
14 21/02 12:55 RIZKYDIMAS murni besar 50,000
15 21/02 12:55 HAKUNA23 murni besar 50,000
16 21/02 12:54 SIUCIL99 lucky99 50,000
17 21/02 12:54 ONCOM909 murni besar 50,000
18 21/02 12:53 GURILEM33 balak 100,000
19 21/02 12:53 GIBILLQQ murni besar 50,000
20 21/02 12:53 CHOXTER44 murni besar 50,000
21 21/02 12:53 RENDI188 murni besar 25,000
22 21/02 12:53 BLOKIR77 murni kecil 5,000
23 21/02 12:53 GIBILLQQ murni besar 50,000
24 21/02 12:52 MULES04 murni kecil 50,000
25 21/02 12:52 PERTAMAX08 murni besar 50,000
26 21/02 12:52 DANA_BESAR balak 50,000
27 21/02 12:52 JOYSPADE20 murni besar 5,000
28 21/02 12:52 NOOBKIP5 murni kecil 25,000
29 21/02 12:52 DANA_BESAR lucky99 50,000
30 21/02 12:51 BAYU1983 murni kecil 5,000
31 21/02 12:51 RINDUAKU murni besar 25,000
32 21/02 12:51 ILYGINA murni kecil 25,000
33 21/02 12:51 RIO90 murni besar 5,000
34 21/02 12:51 P1REEXXX murni besar 50,000
35 21/02 12:50 BOLODEW099 murni besar 5,000
36 21/02 12:49 SILLITT murni besar 50,000
37 21/02 12:48 JERMANI3 lucky99 25,000
38 21/02 12:47 TOAST24 balak 100,000
39 21/02 12:47 SSAALLA murni besar 5,000
40 21/02 12:47 MANGA60H murni besar 25,000
41 21/02 12:47 RIZKYDIMAS balak 100,000
42 21/02 12:47 F4DF3QQ99 murni besar 50,000
43 21/02 12:47 CLAZH murni besar 5,000
44 21/02 12:46 RCBNTENG murni besar 5,000
45 21/02 12:46 TUYUL_122 murni besar 25,000
46 21/02 12:46 ZAQQ135 murni besar 25,000
47 21/02 12:46 DEMPHO murni besar 50,000
48 21/02 12:46 PENGKIK murni kecil 50,000
49 21/02 12:46 SUR4DJ4 murni besar 50,000
50 21/02 12:46 BAYU1983 balak 10,000


Situs Poker Online
Dewapoker.com Hadir untuk semua pecinta permainan kartu poker online yang khususnya berada di asia. Dengan system teknology baru dan server kecepatan tinggi akan membuat permainan poker anda lebih seru dan menarik bersama teman2x anda maupun saingan anda. Cukup lakukan login dan langsung bermain tanpa download. Dewapoker.com dengan encrypsi server yang tinggi akan menjamin keamanan data para member.
Terms & Conditions Link Alternatif Cara Bermain Video Dewapoker
© Copyright 2019 Dewa Poker. All right reserved.